Splendour Of The Seas — C6TZ9 — position and weather

sailwx.info

Track history (hours):
 
Tides and Currents Weather Stations Pressure Air Temp Water Temp Dewpoint Dewpoint Depression Visibility Wind Speed Wind Dir Waves Ship Positions

Splendour Of The Seas

Last reported at 2015-Jul-01 23:00 UTC. Time now 2015-Jul-02 00:57 UTC.
Position N 36°18' E 022°18'.

Type: Passenger vessel. MMSI: 311804000.

Wind from 360 at 7 knots

Barometer 1017.0 mb
Air temperature 23.0 ° C
Dewpoint 21.6 ° C
Water temperature 27.0 ° C

Date/timePositionNaut miles runAvg speedWind from/ knotsBaromVisibWave heightAir tempDewpointWater temp
2015-Jul-01 23:00N 36°18' E 022°18'13515.9 360 / 71017.0 23.021.627.0
2015-Jul-01 14:33N 37°13' E 024°51'1615.7
2015-Jul-01 13:33N 37°23' E 025°07'1110.8
2015-Jul-01 12:33N 37°27' E 025°19'0 0.1
2015-Jul-01 11:32N 37°27' E 025°19'0 0.0
2015-Jul-01 10:33N 37°27' E 025°19'0 0.0
2015-Jul-01 09:32N 37°27' E 025°19'0 0.0
2015-Jul-01 08:33N 37°27' E 025°19'0 0.0
2015-Jul-01 07:33N 37°27' E 025°19'0 0.0
2015-Jul-01 06:33N 37°27' E 025°19'0 0.0
2015-Jul-01 05:33N 37°27' E 025°19'0 0.0
2015-Jul-01 04:33N 37°27' E 025°19'2 1.6
2015-Jul-01 03:33N 37°27' E 025°17'9 8.6
2015-Jul-01 02:33N 37°30' E 025°07'9 8.7
2015-Jul-01 01:33N 37°32' E 024°56'9 8.7
2015-Jul-01 00:33N 37°32' E 024°45'45 8.9
2015-Jun-30 19:29N 37°35' E 023°48'1112.1
2015-Jun-30 18:33N 37°44' E 023°40'1211.9
2015-Jun-30 17:33N 37°55' E 023°36'2 1.7
2015-Jun-30 16:31N 37°56' E 023°38'0 0.0
2015-Jun-30 15:31N 37°56' E 023°38'0 0.0
2015-Jun-30 14:28N 37°56' E 023°38'0 0.0
2015-Jun-30 13:31N 37°56' E 023°38'0 0.0
2015-Jun-30 12:32N 37°56' E 023°38'0 0.0
2015-Jun-30 11:32N 37°56' E 023°38'0 0.0
2015-Jun-30 10:32N 37°56' E 023°38'0 0.0
2015-Jun-30 09:32N 37°56' E 023°38'2 1.6
2015-Jun-30 08:33N 37°55' E 023°37'1918.5
2015-Jun-30 07:33N 37°38' E 023°45'1919.4
2015-Jun-30 06:33N 37°19' E 023°40'35810.7
2015-Jun-28 21:07N 41°54' E 018°42'1318.0
2015-Jun-28 20:25N 42°06' E 018°38'1618.2
2015-Jun-28 19:33N 42°21' E 018°34'8 8.3
2015-Jun-28 18:33N 42°28' E 018°41'4 4.0
2015-Jun-28 17:32N 42°26' E 018°46'0 0.0
2015-Jun-28 16:31N 42°26' E 018°46'0 0.0
2015-Jun-28 15:31N 42°26' E 018°46'0 0.0
2015-Jun-28 14:28N 42°26' E 018°46'0 0.1
2015-Jun-28 13:31N 42°26' E 018°46'0 0.0
2015-Jun-28 12:32N 42°26' E 018°46'2 2.5
2015-Jun-28 11:33N 42°28' E 018°44'7 7.4
2015-Jun-28 10:33N 42°26' E 018°35'273 8.1
2015-Jun-27 01:00N 44°54' E 013°18'7 7.4 5.0 28.0
2015-Jun-27 00:00N 44°48' E 013°24'10617.7 230 / 91017.0 21.019.528.0
2015-Jun-26 18:00N 43°24' E 014°54'10217.0 330 / 171016.0 22.020.524.0
2015-Jun-26 12:00N 42°06' E 016°24'1818.0 340 / 191016.0 22.019.027.0
2015-Jun-26 11:00N 41°54' E 016°42'16616.6 320 / 141016.0 22.019.027.0
2015-Jun-26 01:00N 39°42' E 018°54'3819.0 340 / 131014.0 21.019.527.0
2015-Jun-25 23:00N 39°12' E 019°24'214 9.3 340 / 131014.0 21.019.527.0
2015-Jun-25 00:00N 36°24' E 022°12'6016.1 320 / 131013.0 22.022.026.0
2015-Jun-24 20:18N 36°22' E 023°26'1114.8
2015-Jun-24 19:33N 36°21' E 023°40'1514.8
2015-Jun-24 18:33N 36°20' E 023°58'4514.8
2015-Jun-24 15:33N 36°22' E 024°53'1615.0
2015-Jun-24 14:30N 36°23' E 025°13'1010.6
2015-Jun-24 13:32N 36°25' E 025°25'0 0.1
2015-Jun-24 12:32N 36°25' E 025°25'0 0.1
2015-Jun-24 11:32N 36°25' E 025°25'0 0.1
2015-Jun-24 10:33N 36°25' E 025°25'0 0.0
2015-Jun-24 09:33N 36°25' E 025°25'0 0.1
2015-Jun-24 08:33N 36°25' E 025°25'0 0.0
2015-Jun-24 07:33N 36°25' E 025°25'0 0.1
2015-Jun-24 06:33N 36°25' E 025°25'0 0.0
2015-Jun-24 05:33N 36°25' E 025°25'0 0.0
2015-Jun-24 04:31N 36°25' E 025°25'3 2.9
2015-Jun-24 03:33N 36°27' E 025°23'10 9.6
2015-Jun-24 02:33N 36°35' E 025°28'1110.6
2015-Jun-24 01:33N 36°44' E 025°36'1110.6
2015-Jun-24 00:33N 36°51' E 025°45'1110.8
2015-Jun-23 23:31N 36°59' E 025°55'246 6.9
2015-Jun-22 12:00N 37°18' E 020°48'23718.2 320 / 191013.0 22.022.028.0
2015-Jun-21 23:00N 40°54' E 018°42'   340 / 91014.0 21.019.527.0
Track history (hours):
 
Tides and Currents Weather Stations Pressure Air Temp Water Temp Dewpoint Dewpoint Depression Visibility Wind Speed Wind Dir Waves Ship Positions

Splendour Of The Seas

Last reported at 2015-Jul-01 23:00 UTC. Time now 2015-Jul-02 00:57 UTC.
Position N 36°18' E 022°18'.

Type: Passenger vessel. MMSI: 311804000.

Wind from 360 at 7 knots

Barometer 1017.0 mb
Air temperature 23.0 ° C
Dewpoint 21.6 ° C
Water temperature 27.0 ° C

Date/timePositionNaut miles runAvg speedWind from/ knotsBaromVisibWave heightAir tempDewpointWater temp
2015-Jul-01 23:00N 36°18' E 022°18'13515.9 360 / 71017.0 23.021.627.0
2015-Jul-01 14:33N 37°13' E 024°51'1615.7
2015-Jul-01 13:33N 37°23' E 025°07'1110.8
2015-Jul-01 12:33N 37°27' E 025°19'0 0.1
2015-Jul-01 11:32N 37°27' E 025°19'0 0.0
2015-Jul-01 10:33N 37°27' E 025°19'0 0.0
2015-Jul-01 09:32N 37°27' E 025°19'0 0.0
2015-Jul-01 08:33N 37°27' E 025°19'0 0.0
2015-Jul-01 07:33N 37°27' E 025°19'0 0.0
2015-Jul-01 06:33N 37°27' E 025°19'0 0.0
2015-Jul-01 05:33N 37°27' E 025°19'0 0.0
2015-Jul-01 04:33N 37°27' E 025°19'2 1.6
2015-Jul-01 03:33N 37°27' E 025°17'9 8.6
2015-Jul-01 02:33N 37°30' E 025°07'9 8.7
2015-Jul-01 01:33N 37°32' E 024°56'9 8.7
2015-Jul-01 00:33N 37°32' E 024°45'45 8.9
2015-Jun-30 19:29N 37°35' E 023°48'1112.1
2015-Jun-30 18:33N 37°44' E 023°40'1211.9
2015-Jun-30 17:33N 37°55' E 023°36'2 1.7
2015-Jun-30 16:31N 37°56' E 023°38'0 0.0
2015-Jun-30 15:31N 37°56' E 023°38'0 0.0
2015-Jun-30 14:28N 37°56' E 023°38'0 0.0
2015-Jun-30 13:31N 37°56' E 023°38'0 0.0
2015-Jun-30 12:32N 37°56' E 023°38'0 0.0
2015-Jun-30 11:32N 37°56' E 023°38'0 0.0
2015-Jun-30 10:32N 37°56' E 023°38'0 0.0
2015-Jun-30 09:32N 37°56' E 023°38'2 1.6
2015-Jun-30 08:33N 37°55' E 023°37'1918.5
2015-Jun-30 07:33N 37°38' E 023°45'1919.4
2015-Jun-30 06:33N 37°19' E 023°40'35810.7
2015-Jun-28 21:07N 41°54' E 018°42'1318.0
2015-Jun-28 20:25N 42°06' E 018°38'1618.2
2015-Jun-28 19:33N 42°21' E 018°34'8 8.3
2015-Jun-28 18:33N 42°28' E 018°41'4 4.0
2015-Jun-28 17:32N 42°26' E 018°46'0 0.0
2015-Jun-28 16:31N 42°26' E 018°46'0 0.0
2015-Jun-28 15:31N 42°26' E 018°46'0 0.0
2015-Jun-28 14:28N 42°26' E 018°46'0 0.1
2015-Jun-28 13:31N 42°26' E 018°46'0 0.0
2015-Jun-28 12:32N 42°26' E 018°46'2 2.5
2015-Jun-28 11:33N 42°28' E 018°44'7 7.4
2015-Jun-28 10:33N 42°26' E 018°35'273 8.1
2015-Jun-27 01:00N 44°54' E 013°18'7 7.4 5.0 28.0
2015-Jun-27 00:00N 44°48' E 013°24'10617.7 230 / 91017.0 21.019.528.0
2015-Jun-26 18:00N 43°24' E 014°54'10217.0 330 / 171016.0 22.020.524.0
2015-Jun-26 12:00N 42°06' E 016°24'1818.0 340 / 191016.0 22.019.027.0
2015-Jun-26 11:00N 41°54' E 016°42'16616.6 320 / 141016.0 22.019.027.0
2015-Jun-26 01:00N 39°42' E 018°54'3819.0 340 / 131014.0 21.019.527.0
2015-Jun-25 23:00N 39°12' E 019°24'214 9.3 340 / 131014.0 21.019.527.0
2015-Jun-25 00:00N 36°24' E 022°12'6016.1 320 / 131013.0 22.022.026.0
2015-Jun-24 20:18N 36°22' E 023°26'1114.8
2015-Jun-24 19:33N 36°21' E 023°40'1514.8
2015-Jun-24 18:33N 36°20' E 023°58'4514.8
2015-Jun-24 15:33N 36°22' E 024°53'1615.0
2015-Jun-24 14:30N 36°23' E 025°13'1010.6
2015-Jun-24 13:32N 36°25' E 025°25'0 0.1
2015-Jun-24 12:32N 36°25' E 025°25'0 0.1
2015-Jun-24 11:32N 36°25' E 025°25'0 0.1
2015-Jun-24 10:33N 36°25' E 025°25'0 0.0
2015-Jun-24 09:33N 36°25' E 025°25'0 0.1
2015-Jun-24 08:33N 36°25' E 025°25'0 0.0
2015-Jun-24 07:33N 36°25' E 025°25'0 0.1
2015-Jun-24 06:33N 36°25' E 025°25'0 0.0
2015-Jun-24 05:33N 36°25' E 025°25'0 0.0
2015-Jun-24 04:31N 36°25' E 025°25'3 2.9
2015-Jun-24 03:33N 36°27' E 025°23'10 9.6
2015-Jun-24 02:33N 36°35' E 025°28'1110.6
2015-Jun-24 01:33N 36°44' E 025°36'1110.6
2015-Jun-24 00:33N 36°51' E 025°45'1110.8
2015-Jun-23 23:31N 36°59' E 025°55'246 6.9
2015-Jun-22 12:00N 37°18' E 020°48'23718.2 320 / 191013.0 22.022.028.0
2015-Jun-21 23:00N 40°54' E 018°42'   340 / 91014.0 21.019.527.0

Dump ship's entire track history